Weather reports worldwide

Advertisment
Besancon, France (7288): temperature & dewpoint: 09.10.2019 20:00:00 - 15.10.2019 20:00:00 (CEST)Besancon, France (7288): temperature 5cm: 09.10.2019 20:00:00 - 15.10.2019 20:00:00 (CEST)Besancon, France (7288): temperature -20cm & temperature -100cm: 09.10.2019 20:00:00 - 15.10.2019 20:00:00 (CEST)Besancon, France (7288): wind speed & gusts: 09.10.2019 20:00:00 - 15.10.2019 20:00:00 (CEST)Besancon, France (7288): wind direction: 09.10.2019 20:00:00 - 15.10.2019 20:00:00 (CEST)Besancon, France (7288): reduced air pressure: 09.10.2019 20:00:00 - 15.10.2019 20:00:00 (CEST)Besancon, France (7288): sunshine duration: 09.10.2019 20:00:00 - 15.10.2019 20:00:00 (CEST)Besancon, France (7288): precipitation: 09.10.2019 20:00:00 - 15.10.2019 20:00:00 (CEST)
Date & Time tt [°C] td [°C] tt 5cm [°C] tt -20cm [°C] tt -100cm [°C] ff [km/h] ff [kn] fx [km/h] fx [kn] dd ppp [hPa] sd [min] rr [mm]
15.10.2019 20:00:00 11,0 10,2 10,1 15,5 15,8 13 7 25 13 SW 1014,6 0 0,0
15.10.2019 19:00:00 11,1 10,2 10,7 15,5 15,8 9 5 34 19 SSW 1014,0 0 1,0
15.10.2019 18:00:00 11,9 10,8 11,5 15,5 15,8 15 8 35 19 SW 1011,8 0 1,3
15.10.2019 17:00:00 12,7 11,8 12,3 15,5 15,8 11 6 24 13 SSW 1010,6 0 0,6
15.10.2019 16:00:00 12,5 11,7 12,4 15,5 15,8 10 6 23 12 SW 1010,3 0 3,2
15.10.2019 15:00:00 12,7 11,6 13,0 15,5 15,8 6 3 20 11 WSW 1009,9 0 0,8
15.10.2019 14:00:00 13,1 12,0 13,5 15,5 15,8 6 4 13 7 SSW 1009,9 0 0,0
15.10.2019 13:00:00 12,7 11,8 12,8 15,5 15,7 5 3 12 7 WSW 1010,3 0 1,6
15.10.2019 12:00:00 13,0 12,1 12,8 15,6 15,8 4 2 13 7 SW 1010,6 0 2,2
15.10.2019 11:00:00 13,1 12,5 13,0 15,6 15,8 0 0 5 3 N 1010,5 0 1,8
15.10.2019 10:00:00 12,9 12,3 12,6 15,6 15,8 0 0 5 3 N 1010,3 0 1,2
15.10.2019 09:00:00 12,7 11,9 12,2 15,7 15,8 0 0 6 3 N 1009,9 0 2,5
15.10.2019 08:00:00 12,8 11,9 12,2 15,7 15,7 3 1 19 11 SW 1009,8 0 3,6
15.10.2019 07:00:00 13,4 12,1 12,7 15,7 15,7 6 3 22 12 WNW 1008,2 0 0,2
15.10.2019 06:00:00 13,9 12,5 12,4 15,7 15,7 0 0 7 4 N 1008,1 0 0,4
15.10.2019 05:00:00 14,0 12,2 11,5 15,8 15,8 0 0 3 2 N 1007,8 0 0,0
15.10.2019 04:00:00 13,6 12,0 9,6 15,9 15,7 0 0 6 4 N 1007,5 0 0,0
15.10.2019 03:00:00 13,4 12,0 9,0 15,9 15,8 0 0 4 2 N 1008,8 0 0,0
15.10.2019 02:00:00 14,1 12,0 9,0 15,9 15,7 0 0 5 3 N 1009,3 0 0,0
15.10.2019 01:00:00 14,3 12,0 9,7 15,9 15,7 0 0 4 2 N 1009,8 0 0,0
15.10.2019 00:00:00 16,3 12,5 10,5 16,0 15,8 0 0 4 2 N 1010,0 0 0,0
14.10.2019 23:00:00 16,6 12,5 10,8 15,9 15,8 0 0 5 3 N 1010,7 0 0,0
14.10.2019 22:00:00 17,9 12,1 11,9 15,9 15,7 0 0 12 7 N 1010,6 0 0,0
14.10.2019 21:00:00 18,5 11,8 12,5 15,9 15,7 0 0 4 2 N 1010,5 0 0,0
14.10.2019 20:00:00 19,6 11,6 13,2 15,8 15,7 0 0 12 6 N 1010,2 0 0,0
14.10.2019 19:00:00 21,6 11,0 15,5 15,8 15,8 6 3 16 9 SSW 1009,5 0 0,0
14.10.2019 18:00:00 23,4 10,8 20,5 15,6 15,7 7 4 22 12 SW 1009,1 26 0,0
14.10.2019 17:00:00 25,7 10,7 26,8 15,5 15,7 9 5 34 18 SW 1008,9 60 0,0
14.10.2019 16:00:00 26,3 9,6 27,2 15,4 15,7 12 7 35 19 SSW 1009,5 60 0,0
14.10.2019 15:00:00 25,5 8,9 28,4 15,4 15,7 13 7 35 19 SW 1010,4 60 0,0
14.10.2019 14:00:00 24,4 10,7 28,2 15,3 15,7 15 8 37 20 SW 1011,6 60 0,0
14.10.2019 13:00:00 23,4 10,8 29,0 15,3 15,7 11 6 32 17 SSW 1013,0 60 0,0
14.10.2019 12:00:00 21,7 10,2 28,9 15,3 15,7 12 6 28 15 SSW 1014,0 60 0,0
14.10.2019 11:00:00 20,0 12,2 18,8 15,3 15,7 3 2 10 5 SSE 1014,7 60 0,0
14.10.2019 10:00:00 14,8 11,6 9,6 15,4 15,7 0 0 5 3 N 1015,5 60 0,0
14.10.2019 09:00:00 12,6 11,0 7,7 15,4 15,8 0 0 4 2 N 1015,7 19 0,0
14.10.2019 08:00:00 13,1 11,0 7,4 15,5 15,7 0 0 6 4 N 1015,1 0 0,0
14.10.2019 07:00:00 14,0 11,0 8,1 15,5 15,7 0 0 6 3 N 1015,1 0 0,0
14.10.2019 06:00:00 14,9 11,1 9,1 15,5 15,7 0 0 9 5 N 1015,5 0 0,0
14.10.2019 05:00:00 15,5 11,7 9,7 15,5 15,7 0 0 11 6 N 1015,7 0 0,0
14.10.2019 04:00:00 17,0 11,9 13,5 15,6 15,8 6 3 27 14 SSW 1015,6 0 0,0
14.10.2019 03:00:00 17,7 12,4 15,1 15,6 15,8 7 4 24 13 SSW 1015,7 0 0,0
14.10.2019 02:00:00 18,2 12,4 15,7 15,6 15,8 9 5 27 15 SSW 1015,7 0 0,0
14.10.2019 01:00:00 18,9 12,4 16,5 15,6 15,8 13 7 36 19 SSW 1015,5 0 0,0
14.10.2019 00:00:00 19,0 12,0 15,2 15,6 15,7 12 6 31 17 SW 1015,8 0 0,0
13.10.2019 23:00:00 18,7 12,0 15,4 15,6 15,7 6 4 21 12 SW 1016,1 0 0,0
13.10.2019 22:00:00 18,8 11,8 14,7 15,6 15,8 5 3 23 12 SSW 1015,8 0 0,0
13.10.2019 21:00:00 19,7 11,7 15,0 15,5 15,7 8 5 20 11 SSW 1014,7 0 0,0
13.10.2019 20:00:00 19,6 11,6 12,9 15,5 15,8 6 3 16 8 SW 1014,1 0 0,0
13.10.2019 19:00:00 21,8 10,9 18,3 15,4 15,8 7 4 27 15 SSW 1013,3 26 0,0
13.10.2019 18:00:00 23,9 10,6 22,7 15,3 15,8 11 6 33 18 SSW 1013,1 60 0,0
13.10.2019 17:00:00 24,9 10,0 25,9 15,2 15,7 18 10 40 22 SW 1013,2 60 0,0
13.10.2019 16:00:00 25,6 9,8 27,2 15,1 15,8 16 9 42 23 SW 1013,1 60 0,0
13.10.2019 15:00:00 25,5 10,5 28,3 15,0 15,8 20 11 53 29 SW 1013,3 60 0,0
13.10.2019 14:00:00 24,9 10,4 25,7 14,9 15,8 22 12 50 27 SSW 1013,6 47 0,0
13.10.2019 13:00:00 23,0 12,3 24,8 14,9 15,8 17 9 37 20 SW 1014,4 34 0,0
13.10.2019 12:00:00 22,3 12,8 26,2 14,8 15,8 11 6 34 19 SSW 1014,4 52 0,0
13.10.2019 11:00:00 21,2 12,6 20,0 14,9 15,8 11 6 31 17 SSW 1014,5 40 0,0
13.10.2019 10:00:00 19,8 12,3 15,1 14,9 15,8 11 6 36 20 SSW 1014,7 60 0,0
13.10.2019 09:00:00 17,4 12,3 11,6 14,9 15,8 4 2 13 7 S 1014,7 18 0,0
13.10.2019 08:00:00 16,8 11,9 10,3 14,9 15,8 3 2 11 6 S 1014,2 0 0,0
13.10.2019 07:00:00 15,9 12,1 10,4 14,9 15,8 0 0 6 3 N 1014,8 0 0,0
13.10.2019 06:00:00 17,7 12,2 13,8 14,9 15,8 0 0 13 7 N 1014,8 0 0,0
13.10.2019 05:00:00 19,2 12,0 17,0 14,9 15,8 8 4 33 18 SW 1014,8 0 0,0
13.10.2019 04:00:00 19,0 12,3 16,7 14,9 15,8 10 5 34 18 SSW 1014,9 0 0,0
13.10.2019 03:00:00 19,7 12,5 17,0 14,9 15,8 10 5 31 17 SSW 1015,7 0 0,0
13.10.2019 02:00:00 19,3 12,6 17,1 14,9 15,9 8 4 19 11 SSW 1015,5 0 0,0
13.10.2019 01:00:00 19,4 12,6 16,5 14,9 15,8 6 4 23 12 SSW 1015,5 0 0,0
13.10.2019 00:00:00 19,4 12,9 16,0 14,9 15,9 8 5 24 13 SSW 1015,6 0 0,0
12.10.2019 23:00:00 19,8 13,0 17,2 14,8 15,8 4 2 23 12 SSW 1015,3 0 0,0
12.10.2019 22:00:00 19,6 13,1 15,6 14,8 15,9 5 3 16 9 SSW 1015,0 0 0,0
12.10.2019 21:00:00 19,1 13,3 14,8 14,8 15,9 5 3 19 11 SSW 1015,2 0 0,0
12.10.2019 20:00:00 19,4 13,8 16,4 14,7 15,9 6 3 18 10 SSW 1015,1 0 0,0
12.10.2019 19:00:00 20,1 14,0 18,1 14,6 15,9 6 3 24 13 SSW 1014,8 0 0,0
12.10.2019 18:00:00 20,7 14,3 19,5 14,6 15,9 8 4 27 15 SSW 1014,7 0 0,0
12.10.2019 17:00:00 20,5 14,4 17,3 14,5 15,9 9 5 29 15 SW 1015,0 0 0,2
12.10.2019 16:00:00 18,9 15,6 18,1 14,4 15,9 0 0 16 9 N 1016,0 0 0,0
12.10.2019 15:00:00 18,6 15,3 17,2 14,3 15,9 8 4 37 20 SW 1016,9 0 0,0
12.10.2019 14:00:00 19,9 14,3 18,2 14,2 15,9 14 8 43 23 SW 1017,1 0 0,0
12.10.2019 13:00:00 21,2 14,1 22,5 14,2 15,9 11 6 27 15 SW 1017,0 11 0,0
12.10.2019 12:00:00 20,3 13,7 22,2 14,2 15,9 7 4 20 11 SW 1016,3 10 0,0
12.10.2019 11:00:00 20,0 13,0 22,4 14,2 15,9 5 3 19 10 SSW 1016,3 48 0,0
12.10.2019 10:00:00 17,2 11,9 13,5 14,2 15,9 3 1 9 5 SSW 1017,0 60 0,0
12.10.2019 09:00:00 15,1 11,1 11,6 14,3 15,9 3 2 11 6 SSW 1017,0 34 0,0
12.10.2019 08:00:00 15,0 10,6 10,8 14,3 15,9 5 3 14 8 SSW 1016,8 0 0,0
12.10.2019 07:00:00 15,0 10,6 11,3 14,3 15,9 7 4 15 8 SSW 1016,8 0 0,0
12.10.2019 06:00:00 14,9 10,3 10,9 14,4 15,9 5 3 15 8 SSW 1016,9 0 0,0
12.10.2019 05:00:00 14,8 10,2 10,1 14,4 15,9 5 3 16 8 SSW 1017,0 0 0,0
12.10.2019 04:00:00 15,5 10,0 11,6 14,5 16,0 6 3 27 15 SW 1016,8 0 0,0
12.10.2019 03:00:00 15,4 10,0 9,2 14,5 15,9 9 5 20 11 SW 1016,9 0 0,0
12.10.2019 02:00:00 14,2 9,6 7,7 14,6 16,0 5 3 11 6 SW 1017,4 0 0,0
12.10.2019 01:00:00 13,2 9,3 4,9 14,6 16,0 4 2 14 8 SW 1017,6 0 0,0
12.10.2019 00:00:00 10,0 7,9 5,0 14,6 16,0 3 2 5 3 NNE 1018,1 0 0,0
11.10.2019 23:00:00 10,8 8,4 5,7 14,6 15,9 2 1 5 3 N 1017,6 0 0,0
11.10.2019 22:00:00 11,7 8,9 6,1 14,6 16,0 0 0 11 6 N 1017,4 0 0,0
11.10.2019 21:00:00 12,9 9,3 6,6 14,6 16,0 0 0 4 2 N 1017,1 0 0,0
11.10.2019 20:00:00 15,2 9,3 8,7 14,5 16,0 2 1 13 7 S 1017,1 0 0,0
11.10.2019 19:00:00 16,9 9,3 11,9 14,4 16,0 4 2 13 7 SSW 1016,7 29 0,0
11.10.2019 18:00:00 19,6 8,9 19,3 14,3 16,0 10 5 23 12 SW 1016,6 60 0,0
11.10.2019 17:00:00 20,6 8,9 22,7 14,1 16,0 10 5 26 14 SW 1016,7 60 0,0
11.10.2019 16:00:00 20,9 8,5 26,1 14,0 16,0 9 5 23 12 SW 1017,0 60 0,0
11.10.2019 15:00:00 20,3 10,1 26,0 13,9 16,0 9 5 22 12 SW 1017,9 60 0,0
11.10.2019 14:00:00 19,1 10,4 26,6 13,8 16,0 9 5 20 11 SW 1019,0 60 0,0
11.10.2019 13:00:00 18,4 11,5 28,3 13,8 16,0 6 3 18 10 SW 1020,1 60 0,0
11.10.2019 12:00:00 17,1 10,7 26,5 13,8 16,0 5 3 13 7 SW 1020,9 60 0,0
11.10.2019 11:00:00 14,9 10,3 15,2 13,9 16,0 4 2 13 7 W 1021,7 60 0,0
11.10.2019 10:00:00 10,0 9,5 5,3 14,0 16,0 0 0 4 2 N 1022,0 60 0,2
11.10.2019 09:00:00 7,5 7,1 3,1 14,1 16,0 2 1 5 3 NNE 1022,2 19 0,0
11.10.2019 08:00:00 6,8 6,2 2,6 14,2 16,0 0 0 5 3 N 1021,8 0 0,0
11.10.2019 07:00:00 7,1 6,5 2,8 14,3 16,0 0 0 3 2 N 1022,0 0 0,0
11.10.2019 06:00:00 7,1 6,5 3,3 14,3 16,0 3 2 5 3 NNE 1022,3 0 0,0
11.10.2019 05:00:00 7,6 7,2 3,2 14,4 16,0 4 2 6 3 NNE 1022,2 0 0,0
11.10.2019 04:00:00 7,2 6,6 2,8 14,5 16,0 0 0 3 2 N 1022,8 0 0,0
11.10.2019 03:00:00 7,5 6,9 2,8 14,6 16,0 0 0 4 2 N 1023,3 0 0,0
11.10.2019 02:00:00 8,0 7,4 3,0 14,6 16,0 0 0 5 3 N 1023,2 0 0,0
11.10.2019 01:00:00 8,3 7,5 3,6 14,7 16,0 0 0 4 2 N 1023,4 0 0,0
11.10.2019 00:00:00 8,5 7,3 3,7 14,7 16,1 0 0 4 2 N 1023,6 0 0,0
10.10.2019 23:00:00 10,2 8,6 5,0 14,7 16,0 3 1 7 4 S 1023,1 0 0,0
10.10.2019 22:00:00 10,5 8,8 5,5 14,8 16,1 0 0 10 5 N 1023,0 0 0,0
10.10.2019 21:00:00 11,4 9,3 7,0 14,8 16,1 4 2 10 5 SSW 1022,5 0 0,0
10.10.2019 20:00:00 12,2 9,4 8,1 14,7 16,0 3 2 16 9 SSW 1022,3 0 0,0
10.10.2019 19:00:00 14,2 9,4 12,1 14,7 16,0 9 5 25 14 SSW 1021,7 24 0,0
10.10.2019 18:00:00 15,1 9,5 14,4 14,7 16,1 8 5 25 13 SSW 1021,2 20 0,0
10.10.2019 17:00:00 16,2 9,4 18,8 14,6 16,1 13 7 30 16 SW 1021,2 60 0,0
10.10.2019 16:00:00 16,0 9,4 15,9 14,6 16,1 13 7 32 18 SW 1021,1 33 0,0
10.10.2019 15:00:00 14,6 9,8 15,6 14,5 16,1 9 5 27 15 SSW 1021,2 7 0,0
10.10.2019 14:00:00 14,8 10,0 16,0 14,5 16,1 12 7 36 19 SW 1021,4 13 0,0
10.10.2019 13:00:00 13,8 9,6 13,8 14,5 16,1 12 7 30 16 SW 1021,6 5 0,0
10.10.2019 12:00:00 13,1 9,7 13,0 14,5 16,1 13 7 33 18 SW 1021,4 0 0,0
10.10.2019 11:00:00 12,3 9,7 11,2 14,6 16,1 13 7 27 15 SW 1021,3 0 0,0
10.10.2019 10:00:00 11,2 9,5 10,2 14,6 16,1 12 7 29 16 SW 1021,3 0 0,4
10.10.2019 09:00:00 11,1 9,2 10,1 14,7 16,1 14 8 34 19 SW 1020,2 0 0,2
10.10.2019 08:00:00 11,5 8,7 10,3 14,7 16,1 15 8 35 19 SSW 1019,3 0 0,0
10.10.2019 07:00:00 11,4 8,6 10,3 14,7 16,1 14 8 34 18 SW 1019,0 0 0,0
10.10.2019 06:00:00 11,2 8,6 9,8 14,8 16,1 17 9 37 20 SW 1018,6 0 0,0
10.10.2019 05:00:00 11,1 8,8 9,9 14,8 16,1 13 7 29 16 SW 1018,5 0 0,0
10.10.2019 04:00:00 11,1 9,0 10,0 14,8 16,1 13 7 34 18 SW 1018,4 0 0,0
10.10.2019 03:00:00 11,5 9,1 10,3 14,9 16,1 15 8 35 19 SW 1018,1 0 0,0
10.10.2019 02:00:00 11,6 9,5 10,1 15,0 16,1 15 8 35 19 SW 1018,3 0 0,0
10.10.2019 01:00:00 11,9 9,8 9,9 15,0 16,1 14 7 30 16 SW 1017,8 0 0,0
10.10.2019 00:00:00 11,7 10,3 10,1 15,1 16,1 13 7 26 14 SW 1017,6 0 0,0
09.10.2019 23:00:00 11,9 10,6 8,5 15,1 16,1 10 6 22 12 SW 1017,7 0 0,0
09.10.2019 22:00:00 11,3 10,2 8,9 15,1 16,1 5 3 32 18 WSW 1018,0 0 1,8
09.10.2019 21:00:00 11,9 10,6 9,9 15,1 16,1 11 6 30 16 SW 1017,6 0 4,1
09.10.2019 20:00:00 13,0 9,8 11,0 15,1 16,2 17 9 36 19 SSW 1016,5 0 0,2

tt = temperature
td = dewpoint
tt 5cm = temperature 5cm
tt -20cm = temperature -20cm
tt -100cm = temperature -100cm
ff = wind speed
fx = gusts
dd = wind direction
ppp = reduced air pressure
sd = sunshine duration
rr = precipitation

Next stations